sensor_id;sensor_type;location;lat;lon;timestamp;temperature;humidity
13521;DHT22;6832;51.186;3.236;2022-10-31T00:00:26;16.60;73.30
13521;DHT22;6832;51.186;3.236;2022-10-31T00:02:54;16.50;73.20
13521;DHT22;6832;51.186;3.236;2022-10-31T00:05:35;16.50;73.00
13521;DHT22;6832;51.186;3.236;2022-10-31T00:08:12;16.50;72.90
13521;DHT22;6832;51.186;3.236;2022-10-31T00:11:00;16.50;73.00
13521;DHT22;6832;51.186;3.236;2022-10-31T00:13:39;16.50;73.20
13521;DHT22;6832;51.186;3.236;2022-10-31T00:16:18;16.50;72.80
13521;DHT22;6832;51.186;3.236;2022-10-31T00:19:07;16.40;73.10
13521;DHT22;6832;51.186;3.236;2022-10-31T00:21:36;16.40;73.10
13521;DHT22;6832;51.186;3.236;2022-10-31T00:24:29;16.40;72.80
13521;DHT22;6832;51.186;3.236;2022-10-31T00:27:06;16.30;72.90
13521;DHT22;6832;51.186;3.236;2022-10-31T00:29:34;16.30;72.70
13521;DHT22;6832;51.186;3.236;2022-10-31T00:32:05;16.30;72.70
13521;DHT22;6832;51.186;3.236;2022-10-31T00:34:42;16.30;72.90
13521;DHT22;6832;51.186;3.236;2022-10-31T00:37:23;16.20;72.70
13521;DHT22;6832;51.186;3.236;2022-10-31T00:39:52;16.20;72.50
13521;DHT22;6832;51.186;3.236;2022-10-31T00:42:36;16.20;72.30
13521;DHT22;6832;51.186;3.236;2022-10-31T00:45:13;16.10;72.50
13521;DHT22;6832;51.186;3.236;2022-10-31T00:47:41;16.10;72.70
13521;DHT22;6832;51.186;3.236;2022-10-31T00:50:16;16.10;72.70
13521;DHT22;6832;51.186;3.236;2022-10-31T00:52:45;16.10;72.80
13521;DHT22;6832;51.186;3.236;2022-10-31T00:55:18;16.00;72.60
13521;DHT22;6832;51.186;3.236;2022-10-31T01:00:30;16.00;72.70
13521;DHT22;6832;51.186;3.236;2022-10-31T01:03:00;15.90;72.50
13521;DHT22;6832;51.186;3.236;2022-10-31T01:05:36;15.90;72.50
13521;DHT22;6832;51.186;3.236;2022-10-31T01:08:04;15.90;72.60
13521;DHT22;6832;51.186;3.236;2022-10-31T01:10:40;15.80;72.40
13521;DHT22;6832;51.186;3.236;2022-10-31T01:13:09;15.80;72.40
13521;DHT22;6832;51.186;3.236;2022-10-31T01:15:46;15.80;72.40
13521;DHT22;6832;51.186;3.236;2022-10-31T01:18:21;15.70;72.50
13521;DHT22;6832;51.186;3.236;2022-10-31T01:20:57;15.70;72.30
13521;DHT22;6832;51.186;3.236;2022-10-31T01:23:36;15.70;72.50
13521;DHT22;6832;51.186;3.236;2022-10-31T01:26:10;15.60;72.30
13521;DHT22;6832;51.186;3.236;2022-10-31T01:28:43;15.60;72.40
13521;DHT22;6832;51.186;3.236;2022-10-31T01:31:16;15.60;72.40
13521;DHT22;6832;51.186;3.236;2022-10-31T01:33:45;15.50;72.40
13521;DHT22;6832;51.186;3.236;2022-10-31T01:36:16;15.50;72.20
13521;DHT22;6832;51.186;3.236;2022-10-31T01:38:48;15.50;72.50
13521;DHT22;6832;51.186;3.236;2022-10-31T01:41:23;15.50;72.70
13521;DHT22;6832;51.186;3.236;2022-10-31T01:44:01;15.40;72.80
13521;DHT22;6832;51.186;3.236;2022-10-31T01:46:40;15.40;73.00
13521;DHT22;6832;51.186;3.236;2022-10-31T01:49:16;15.40;73.00
13521;DHT22;6832;51.186;3.236;2022-10-31T01:51:51;15.30;72.80
13521;DHT22;6832;51.186;3.236;2022-10-31T01:54:25;15.30;72.80
13521;DHT22;6832;51.186;3.236;2022-10-31T01:57:10;15.30;72.90
13521;DHT22;6832;51.186;3.236;2022-10-31T01:59:55;15.20;73.10
13521;DHT22;6832;51.186;3.236;2022-10-31T02:02:32;15.20;73.00
13521;DHT22;6832;51.186;3.236;2022-10-31T02:05:07;15.20;73.30
13521;DHT22;6832;51.186;3.236;2022-10-31T02:07:39;15.20;73.40
13521;DHT22;6832;51.186;3.236;2022-10-31T02:10:15;15.10;73.10
13521;DHT22;6832;51.186;3.236;2022-10-31T02:13:01;15.20;73.00
13521;DHT22;6832;51.186;3.236;2022-10-31T02:15:35;15.10;73.20
13521;DHT22;6832;51.186;3.236;2022-10-31T02:18:08;15.10;73.20
13521;DHT22;6832;51.186;3.236;2022-10-31T02:20:48;15.10;73.40
13521;DHT22;6832;51.186;3.236;2022-10-31T02:26:57;15.00;73.60
13521;DHT22;6832;51.186;3.236;2022-10-31T02:36:19;15.00;73.60
13521;DHT22;6832;51.186;3.236;2022-10-31T02:38:52;14.90;73.40
13521;DHT22;6832;51.186;3.236;2022-10-31T02:41:30;14.90;73.10
13521;DHT22;6832;51.186;3.236;2022-10-31T02:44:08;14.90;73.50
13521;DHT22;6832;51.186;3.236;2022-10-31T02:46:42;14.90;73.40
13521;DHT22;6832;51.186;3.236;2022-10-31T02:49:21;14.90;73.70
13521;DHT22;6832;51.186;3.236;2022-10-31T02:51:54;14.80;73.70
13521;DHT22;6832;51.186;3.236;2022-10-31T02:54:33;14.80;73.70
13521;DHT22;6832;51.186;3.236;2022-10-31T02:57:09;14.80;73.60
13521;DHT22;6832;51.186;3.236;2022-10-31T02:59:39;14.70;73.60
13521;DHT22;6832;51.186;3.236;2022-10-31T03:02:30;14.70;73.70
13521;DHT22;6832;51.186;3.236;2022-10-31T03:05:27;14.70;73.90
13521;DHT22;6832;51.186;3.236;2022-10-31T03:08:11;14.70;73.90
13521;DHT22;6832;51.186;3.236;2022-10-31T03:10:47;14.70;73.80
13521;DHT22;6832;51.186;3.236;2022-10-31T03:13:27;14.60;73.60
13521;DHT22;6832;51.186;3.236;2022-10-31T03:16:11;14.60;73.70
13521;DHT22;6832;51.186;3.236;2022-10-31T03:18:49;14.60;73.90
13521;DHT22;6832;51.186;3.236;2022-10-31T03:21:23;14.60;73.80
13521;DHT22;6832;51.186;3.236;2022-10-31T03:24:09;14.60;73.80
13521;DHT22;6832;51.186;3.236;2022-10-31T03:26:42;14.50;74.10
13521;DHT22;6832;51.186;3.236;2022-10-31T03:29:16;14.50;74.20
13521;DHT22;6832;51.186;3.236;2022-10-31T03:31:53;14.50;74.30
13521;DHT22;6832;51.186;3.236;2022-10-31T03:34:22;14.50;74.30
13521;DHT22;6832;51.186;3.236;2022-10-31T03:36:53;14.40;74.10
13521;DHT22;6832;51.186;3.236;2022-10-31T03:39:29;14.40;74.50
13521;DHT22;6832;51.186;3.236;2022-10-31T03:42:03;14.40;74.60
13521;DHT22;6832;51.186;3.236;2022-10-31T03:44:40;14.40;74.50
13521;DHT22;6832;51.186;3.236;2022-10-31T03:47:08;14.30;74.50
13521;DHT22;6832;51.186;3.236;2022-10-31T03:49:37;14.30;74.30
13521;DHT22;6832;51.186;3.236;2022-10-31T03:52:12;14.30;74.40
13521;DHT22;6832;51.186;3.236;2022-10-31T03:54:55;14.30;74.40
13521;DHT22;6832;51.186;3.236;2022-10-31T03:57:29;14.20;74.90
13521;DHT22;6832;51.186;3.236;2022-10-31T04:00:06;14.20;74.30
13521;DHT22;6832;51.186;3.236;2022-10-31T04:02:40;14.20;74.30
13521;DHT22;6832;51.186;3.236;2022-10-31T04:05:13;14.20;74.50
13521;DHT22;6832;51.186;3.236;2022-10-31T04:07:45;14.20;74.80
13521;DHT22;6832;51.186;3.236;2022-10-31T04:10:17;14.20;74.70
13521;DHT22;6832;51.186;3.236;2022-10-31T04:12:54;14.20;75.00
13521;DHT22;6832;51.186;3.236;2022-10-31T04:15:30;14.10;75.20
13521;DHT22;6832;51.186;3.236;2022-10-31T04:18:05;14.10;74.90
13521;DHT22;6832;51.186;3.236;2022-10-31T04:20:39;14.10;75.50
13521;DHT22;6832;51.186;3.236;2022-10-31T04:23:17;14.10;75.50
13521;DHT22;6832;51.186;3.236;2022-10-31T04:25:52;14.10;75.90
13521;DHT22;6832;51.186;3.236;2022-10-31T04:28:21;14.10;76.10
13521;DHT22;6832;51.186;3.236;2022-10-31T04:30:55;14.10;76.00
13521;DHT22;6832;51.186;3.236;2022-10-31T04:33:24;14.10;76.00
13521;DHT22;6832;51.186;3.236;2022-10-31T04:35:56;14.10;76.00
13521;DHT22;6832;51.186;3.236;2022-10-31T04:38:26;14.00;76.30
13521;DHT22;6832;51.186;3.236;2022-10-31T04:40:57;14.00;76.20
13521;DHT22;6832;51.186;3.236;2022-10-31T04:43:31;14.00;76.30
13521;DHT22;6832;51.186;3.236;2022-10-31T04:46:06;14.00;76.50
13521;DHT22;6832;51.186;3.236;2022-10-31T04:48:40;14.00;76.90
13521;DHT22;6832;51.186;3.236;2022-10-31T04:51:10;14.00;76.90
13521;DHT22;6832;51.186;3.236;2022-10-31T04:53:42;14.00;77.00
13521;DHT22;6832;51.186;3.236;2022-10-31T04:56:26;14.00;76.80
13521;DHT22;6832;51.186;3.236;2022-10-31T04:58:53;14.00;76.80
13521;DHT22;6832;51.186;3.236;2022-10-31T05:01:30;14.00;76.50
13521;DHT22;6832;51.186;3.236;2022-10-31T05:04:08;14.00;76.90
13521;DHT22;6832;51.186;3.236;2022-10-31T05:06:39;14.00;77.00
13521;DHT22;6832;51.186;3.236;2022-10-31T05:09:15;14.00;76.60
13521;DHT22;6832;51.186;3.236;2022-10-31T05:11:49;13.90;76.50
13521;DHT22;6832;51.186;3.236;2022-10-31T05:14:27;13.90;76.30
13521;DHT22;6832;51.186;3.236;2022-10-31T05:16:57;14.00;76.30
13521;DHT22;6832;51.186;3.236;2022-10-31T05:19:36;13.90;75.90
13521;DHT22;6832;51.186;3.236;2022-10-31T05:22:05;13.90;76.30
13521;DHT22;6832;51.186;3.236;2022-10-31T05:24:33;13.90;76.10
13521;DHT22;6832;51.186;3.236;2022-10-31T05:27:11;13.90;75.80
13521;DHT22;6832;51.186;3.236;2022-10-31T05:29:40;13.90;76.10
13521;DHT22;6832;51.186;3.236;2022-10-31T05:32:13;13.80;75.90
13521;DHT22;6832;51.186;3.236;2022-10-31T05:34:44;13.90;75.80
13521;DHT22;6832;51.186;3.236;2022-10-31T05:37:19;13.80;75.70
13521;DHT22;6832;51.186;3.236;2022-10-31T05:39:47;13.80;76.30
13521;DHT22;6832;51.186;3.236;2022-10-31T05:42:17;13.80;76.20
13521;DHT22;6832;51.186;3.236;2022-10-31T05:45:00;13.80;76.30
13521;DHT22;6832;51.186;3.236;2022-10-31T05:47:29;13.80;76.10
13521;DHT22;6832;51.186;3.236;2022-10-31T05:49:58;13.80;76.20
13521;DHT22;6832;51.186;3.236;2022-10-31T05:52:30;13.80;76.50
13521;DHT22;6832;51.186;3.236;2022-10-31T05:55:03;13.80;76.40
13521;DHT22;6832;51.186;3.236;2022-10-31T05:57:35;13.70;76.40
13521;DHT22;6832;51.186;3.236;2022-10-31T06:00:07;13.70;77.10
13521;DHT22;6832;51.186;3.236;2022-10-31T06:02:41;13.70;76.20
13521;DHT22;6832;51.186;3.236;2022-10-31T06:05:10;13.70;75.80
13521;DHT22;6832;51.186;3.236;2022-10-31T06:07:41;13.70;75.90
13521;DHT22;6832;51.186;3.236;2022-10-31T06:10:10;13.70;76.20
13521;DHT22;6832;51.186;3.236;2022-10-31T06:12:40;13.70;76.40
13521;DHT22;6832;51.186;3.236;2022-10-31T06:15:09;13.70;76.80
13521;DHT22;6832;51.186;3.236;2022-10-31T06:17:40;13.70;76.80
13521;DHT22;6832;51.186;3.236;2022-10-31T06:20:16;13.60;76.80
13521;DHT22;6832;51.186;3.236;2022-10-31T06:22:44;13.60;77.00
13521;DHT22;6832;51.186;3.236;2022-10-31T06:25:16;13.60;76.70
13521;DHT22;6832;51.186;3.236;2022-10-31T06:27:48;13.60;76.70
13521;DHT22;6832;51.186;3.236;2022-10-31T06:30:16;13.60;77.20
13521;DHT22;6832;51.186;3.236;2022-10-31T06:32:44;13.60;76.80
13521;DHT22;6832;51.186;3.236;2022-10-31T06:35:43;13.60;77.10
13521;DHT22;6832;51.186;3.236;2022-10-31T06:38:16;13.60;78.30
13521;DHT22;6832;51.186;3.236;2022-10-31T06:41:01;13.60;77.80
13521;DHT22;6832;51.186;3.236;2022-10-31T06:43:33;13.50;78.10
13521;DHT22;6832;51.186;3.236;2022-10-31T06:46:10;13.60;77.80
13521;DHT22;6832;51.186;3.236;2022-10-31T06:48:39;13.50;77.20
13521;DHT22;6832;51.186;3.236;2022-10-31T06:51:09;13.50;77.50
13521;DHT22;6832;51.186;3.236;2022-10-31T06:53:42;13.50;77.80
13521;DHT22;6832;51.186;3.236;2022-10-31T06:56:09;13.50;78.00
13521;DHT22;6832;51.186;3.236;2022-10-31T06:58:41;13.50;78.10
13521;DHT22;6832;51.186;3.236;2022-10-31T07:01:12;13.50;78.60
13521;DHT22;6832;51.186;3.236;2022-10-31T07:03:51;13.50;78.20
13521;DHT22;6832;51.186;3.236;2022-10-31T07:06:21;13.50;79.10
13521;DHT22;6832;51.186;3.236;2022-10-31T07:08:56;13.50;79.30
13521;DHT22;6832;51.186;3.236;2022-10-31T07:11:46;13.50;80.30
13521;DHT22;6832;51.186;3.236;2022-10-31T07:14:31;13.50;80.80
13521;DHT22;6832;51.186;3.236;2022-10-31T07:17:00;13.60;80.90
13521;DHT22;6832;51.186;3.236;2022-10-31T07:19:34;13.60;80.80
13521;DHT22;6832;51.186;3.236;2022-10-31T07:22:01;13.60;80.80
13521;DHT22;6832;51.186;3.236;2022-10-31T07:24:37;13.60;80.80
13521;DHT22;6832;51.186;3.236;2022-10-31T07:27:07;13.60;80.80
13521;DHT22;6832;51.186;3.236;2022-10-31T07:29:55;13.60;81.80
13521;DHT22;6832;51.186;3.236;2022-10-31T07:32:33;13.70;82.40
13521;DHT22;6832;51.186;3.236;2022-10-31T07:35:04;13.70;82.60
13521;DHT22;6832;51.186;3.236;2022-10-31T07:37:33;13.70;82.30
13521;DHT22;6832;51.186;3.236;2022-10-31T07:40:02;13.70;82.60
13521;DHT22;6832;51.186;3.236;2022-10-31T07:42:50;13.70;82.90
13521;DHT22;6832;51.186;3.236;2022-10-31T07:45:32;13.80;83.80
13521;DHT22;6832;51.186;3.236;2022-10-31T07:48:00;13.80;83.30
13521;DHT22;6832;51.186;3.236;2022-10-31T07:50:32;13.80;83.10
13521;DHT22;6832;51.186;3.236;2022-10-31T07:53:02;13.90;84.00
13521;DHT22;6832;51.186;3.236;2022-10-31T07:55:30;13.90;84.30
13521;DHT22;6832;51.186;3.236;2022-10-31T07:58:08;13.90;84.00
13521;DHT22;6832;51.186;3.236;2022-10-31T08:00:45;14.00;85.30
13521;DHT22;6832;51.186;3.236;2022-10-31T08:03:23;14.00;85.60
13521;DHT22;6832;51.186;3.236;2022-10-31T08:05:52;14.00;85.80
13521;DHT22;6832;51.186;3.236;2022-10-31T08:08:32;14.00;85.50
13521;DHT22;6832;51.186;3.236;2022-10-31T08:11:06;14.10;86.40
13521;DHT22;6832;51.186;3.236;2022-10-31T08:13:42;14.20;86.70
13521;DHT22;6832;51.186;3.236;2022-10-31T08:16:22;14.20;87.10
13521;DHT22;6832;51.186;3.236;2022-10-31T08:18:53;14.20;87.30
13521;DHT22;6832;51.186;3.236;2022-10-31T08:21:22;14.30;86.80
13521;DHT22;6832;51.186;3.236;2022-10-31T08:23:59;14.30;86.80
13521;DHT22;6832;51.186;3.236;2022-10-31T08:26:33;14.40;87.80
13521;DHT22;6832;51.186;3.236;2022-10-31T08:29:03;14.40;87.70
13521;DHT22;6832;51.186;3.236;2022-10-31T08:31:39;14.50;87.30
13521;DHT22;6832;51.186;3.236;2022-10-31T08:34:17;14.60;88.90
13521;DHT22;6832;51.186;3.236;2022-10-31T08:36:46;14.60;87.50
13521;DHT22;6832;51.186;3.236;2022-10-31T08:39:20;14.70;88.30
13521;DHT22;6832;51.186;3.236;2022-10-31T08:41:52;14.80;89.40
13521;DHT22;6832;51.186;3.236;2022-10-31T08:44:23;14.80;89.30
13521;DHT22;6832;51.186;3.236;2022-10-31T08:46:52;14.90;89.20
13521;DHT22;6832;51.186;3.236;2022-10-31T08:49:20;15.00;89.30
13521;DHT22;6832;51.186;3.236;2022-10-31T08:51:58;15.00;89.20
13521;DHT22;6832;51.186;3.236;2022-10-31T08:54:38;15.00;90.20
13521;DHT22;6832;51.186;3.236;2022-10-31T08:57:10;15.10;90.70
13521;DHT22;6832;51.186;3.236;2022-10-31T08:59:46;15.20;90.50
13521;DHT22;6832;51.186;3.236;2022-10-31T09:02:26;15.30;90.90
13521;DHT22;6832;51.186;3.236;2022-10-31T09:04:53;15.30;90.90
13521;DHT22;6832;51.186;3.236;2022-10-31T09:07:23;15.40;90.30
13521;DHT22;6832;51.186;3.236;2022-10-31T09:09:52;15.50;90.50
13521;DHT22;6832;51.186;3.236;2022-10-31T09:12:22;15.60;90.40
13521;DHT22;6832;51.186;3.236;2022-10-31T09:14:53;15.60;90.70
13521;DHT22;6832;51.186;3.236;2022-10-31T09:17:32;15.70;90.70
13521;DHT22;6832;51.186;3.236;2022-10-31T09:20:08;15.80;90.90
13521;DHT22;6832;51.186;3.236;2022-10-31T09:22:43;15.80;90.80
13521;DHT22;6832;51.186;3.236;2022-10-31T09:25:18;15.90;90.70
13521;DHT22;6832;51.186;3.236;2022-10-31T09:27:50;16.00;90.60
13521;DHT22;6832;51.186;3.236;2022-10-31T09:30:19;16.10;90.80
13521;DHT22;6832;51.186;3.236;2022-10-31T09:33:05;16.10;90.80
13521;DHT22;6832;51.186;3.236;2022-10-31T09:35:33;16.20;91.40
13521;DHT22;6832;51.186;3.236;2022-10-31T09:38:03;16.30;90.70
13521;DHT22;6832;51.186;3.236;2022-10-31T09:40:38;16.40;91.10
13521;DHT22;6832;51.186;3.236;2022-10-31T09:43:28;16.40;91.20
13521;DHT22;6832;51.186;3.236;2022-10-31T09:46:09;16.50;91.40
13521;DHT22;6832;51.186;3.236;2022-10-31T09:48:55;16.60;91.40
13521;DHT22;6832;51.186;3.236;2022-10-31T09:51:36;16.70;91.50
13521;DHT22;6832;51.186;3.236;2022-10-31T09:54:14;16.70;91.30
13521;DHT22;6832;51.186;3.236;2022-10-31T09:56:50;16.80;91.50
13521;DHT22;6832;51.186;3.236;2022-10-31T09:59:25;16.90;91.50
13521;DHT22;6832;51.186;3.236;2022-10-31T10:02:02;17.00;91.30
13521;DHT22;6832;51.186;3.236;2022-10-31T10:04:40;17.00;91.30
13521;DHT22;6832;51.186;3.236;2022-10-31T10:07:16;17.10;91.30
13521;DHT22;6832;51.186;3.236;2022-10-31T10:09:56;17.20;91.20
13521;DHT22;6832;51.186;3.236;2022-10-31T10:12:49;17.20;91.20
13521;DHT22;6832;51.186;3.236;2022-10-31T10:15:45;17.40;91.50
13521;DHT22;6832;51.186;3.236;2022-10-31T10:18:26;17.50;91.40
13521;DHT22;6832;51.186;3.236;2022-10-31T10:21:04;17.50;91.00
13521;DHT22;6832;51.186;3.236;2022-10-31T10:23:56;17.60;91.00
13521;DHT22;6832;51.186;3.236;2022-10-31T10:26:34;17.70;91.10
13521;DHT22;6832;51.186;3.236;2022-10-31T10:29:22;17.80;90.80
13521;DHT22;6832;51.186;3.236;2022-10-31T10:32:01;17.90;90.80
13521;DHT22;6832;51.186;3.236;2022-10-31T10:34:43;17.90;90.60
13521;DHT22;6832;51.186;3.236;2022-10-31T10:37:36;18.00;90.60
13521;DHT22;6832;51.186;3.236;2022-10-31T10:40:17;18.10;90.40
13521;DHT22;6832;51.186;3.236;2022-10-31T10:42:59;18.20;90.30
13521;DHT22;6832;51.186;3.236;2022-10-31T10:45:49;18.20;90.30
13521;DHT22;6832;51.186;3.236;2022-10-31T10:48:42;18.30;90.00
13521;DHT22;6832;51.186;3.236;2022-10-31T10:51:20;18.30;89.60
13521;DHT22;6832;51.186;3.236;2022-10-31T10:54:12;18.40;89.80
13521;DHT22;6832;51.186;3.236;2022-10-31T10:57:04;18.50;90.00
13521;DHT22;6832;51.186;3.236;2022-10-31T10:59:41;18.50;89.80
13521;DHT22;6832;51.186;3.236;2022-10-31T11:02:18;18.60;89.60
13521;DHT22;6832;51.186;3.236;2022-10-31T11:04:55;18.60;89.70
13521;DHT22;6832;51.186;3.236;2022-10-31T11:07:25;18.70;89.40
13521;DHT22;6832;51.186;3.236;2022-10-31T11:10:17;18.80;89.30
13521;DHT22;6832;51.186;3.236;2022-10-31T11:12:56;18.90;89.00
13521;DHT22;6832;51.186;3.236;2022-10-31T11:15:26;18.90;89.80
13521;DHT22;6832;51.186;3.236;2022-10-31T11:18:03;18.90;89.40
13521;DHT22;6832;51.186;3.236;2022-10-31T11:20:35;19.00;89.60
13521;DHT22;6832;51.186;3.236;2022-10-31T11:23:10;19.10;89.80
13521;DHT22;6832;51.186;3.236;2022-10-31T11:25:54;19.20;89.80
13521;DHT22;6832;51.186;3.236;2022-10-31T11:28:23;19.30;88.30
13521;DHT22;6832;51.186;3.236;2022-10-31T11:30:54;19.50;87.50
13521;DHT22;6832;51.186;3.236;2022-10-31T11:33:35;19.60;87.40
13521;DHT22;6832;51.186;3.236;2022-10-31T11:36:16;19.70;85.70
13521;DHT22;6832;51.186;3.236;2022-10-31T11:38:44;19.80;84.40
13521;DHT22;6832;51.186;3.236;2022-10-31T11:41:14;19.80;84.50
13521;DHT22;6832;51.186;3.236;2022-10-31T11:43:51;19.90;83.40
13521;DHT22;6832;51.186;3.236;2022-10-31T11:46:24;20.00;84.20
13521;DHT22;6832;51.186;3.236;2022-10-31T11:48:58;20.00;83.90
13521;DHT22;6832;51.186;3.236;2022-10-31T11:51:31;20.10;83.60
13521;DHT22;6832;51.186;3.236;2022-10-31T11:54:03;20.10;83.60
13521;DHT22;6832;51.186;3.236;2022-10-31T11:56:42;20.20;83.00
13521;DHT22;6832;51.186;3.236;2022-10-31T11:59:32;20.30;82.30
13521;DHT22;6832;51.186;3.236;2022-10-31T12:02:00;20.40;81.90
13521;DHT22;6832;51.186;3.236;2022-10-31T12:04:37;20.50;82.60
13521;DHT22;6832;51.186;3.236;2022-10-31T12:07:09;20.50;81.50
13521;DHT22;6832;51.186;3.236;2022-10-31T12:09:38;20.60;81.30
13521;DHT22;6832;51.186;3.236;2022-10-31T12:12:23;20.60;81.20
13521;DHT22;6832;51.186;3.236;2022-10-31T12:15:09;20.70;80.50
13521;DHT22;6832;51.186;3.236;2022-10-31T12:17:48;20.80;80.60
13521;DHT22;6832;51.186;3.236;2022-10-31T12:20:24;20.80;80.20
13521;DHT22;6832;51.186;3.236;2022-10-31T12:23:02;20.80;79.80
13521;DHT22;6832;51.186;3.236;2022-10-31T12:25:38;20.90;79.20
13521;DHT22;6832;51.186;3.236;2022-10-31T12:31:30;20.90;78.30
13521;DHT22;6832;51.186;3.236;2022-10-31T12:34:39;21.00;78.90
13521;DHT22;6832;51.186;3.236;2022-10-31T12:37:15;21.00;77.50
13521;DHT22;6832;51.186;3.236;2022-10-31T12:39:59;21.00;77.80
13521;DHT22;6832;51.186;3.236;2022-10-31T12:42:58;21.00;77.20
13521;DHT22;6832;51.186;3.236;2022-10-31T12:45:43;21.00;77.20
13521;DHT22;6832;51.186;3.236;2022-10-31T12:51:08;21.10;77.20
13521;DHT22;6832;51.186;3.236;2022-10-31T12:53:48;21.10;77.00
13521;DHT22;6832;51.186;3.236;2022-10-31T12:56:31;21.00;76.50
13521;DHT22;6832;51.186;3.236;2022-10-31T12:59:10;21.00;76.10
13521;DHT22;6832;51.186;3.236;2022-10-31T13:01:47;21.00;76.10
13521;DHT22;6832;51.186;3.236;2022-10-31T13:04:21;21.00;76.40
13521;DHT22;6832;51.186;3.236;2022-10-31T13:06:56;21.00;76.20
13521;DHT22;6832;51.186;3.236;2022-10-31T13:09:35;20.90;76.10
13521;DHT22;6832;51.186;3.236;2022-10-31T13:12:11;21.00;76.20
13521;DHT22;6832;51.186;3.236;2022-10-31T13:14:48;20.90;76.30
13521;DHT22;6832;51.186;3.236;2022-10-31T13:17:49;20.90;76.60
13521;DHT22;6832;51.186;3.236;2022-10-31T13:20:26;20.90;76.50
13521;DHT22;6832;51.186;3.236;2022-10-31T13:23:12;20.90;76.50
13521;DHT22;6832;51.186;3.236;2022-10-31T13:26:08;20.80;76.60
13521;DHT22;6832;51.186;3.236;2022-10-31T13:28:44;20.80;76.70
13521;DHT22;6832;51.186;3.236;2022-10-31T13:31:25;20.80;77.00
13521;DHT22;6832;51.186;3.236;2022-10-31T13:34:15;20.80;76.70
13521;DHT22;6832;51.186;3.236;2022-10-31T13:36:58;20.80;77.00
13521;DHT22;6832;51.186;3.236;2022-10-31T13:39:44;20.80;77.00
13521;DHT22;6832;51.186;3.236;2022-10-31T13:42:30;20.80;77.20
13521;DHT22;6832;51.186;3.236;2022-10-31T13:45:19;20.80;77.20
13521;DHT22;6832;51.186;3.236;2022-10-31T13:48:19;20.80;77.20
13521;DHT22;6832;51.186;3.236;2022-10-31T13:51:27;20.80;77.10
13521;DHT22;6832;51.186;3.236;2022-10-31T13:54:21;20.80;76.90
13521;DHT22;6832;51.186;3.236;2022-10-31T13:56:53;20.80;76.90
13521;DHT22;6832;51.186;3.236;2022-10-31T13:59:29;20.80;77.10
13521;DHT22;6832;51.186;3.236;2022-10-31T14:02:16;20.80;77.10
13521;DHT22;6832;51.186;3.236;2022-10-31T14:04:54;20.80;77.10
13521;DHT22;6832;51.186;3.236;2022-10-31T14:07:33;20.80;77.80
13521;DHT22;6832;51.186;3.236;2022-10-31T14:10:21;20.80;76.90
13521;DHT22;6832;51.186;3.236;2022-10-31T14:13:04;20.80;76.90
13521;DHT22;6832;51.186;3.236;2022-10-31T14:15:40;20.80;77.10
13521;DHT22;6832;51.186;3.236;2022-10-31T14:18:21;20.80;77.20
13521;DHT22;6832;51.186;3.236;2022-10-31T14:20:58;20.80;76.90
13521;DHT22;6832;51.186;3.236;2022-10-31T14:23:40;20.80;77.10
13521;DHT22;6832;51.186;3.236;2022-10-31T14:26:50;20.80;77.00
13521;DHT22;6832;51.186;3.236;2022-10-31T14:29:35;20.80;77.10
13521;DHT22;6832;51.186;3.236;2022-10-31T14:32:23;20.80;76.90
13521;DHT22;6832;51.186;3.236;2022-10-31T14:35:15;20.80;77.10
13521;DHT22;6832;51.186;3.236;2022-10-31T14:38:15;20.70;77.20
13521;DHT22;6832;51.186;3.236;2022-10-31T14:41:07;20.70;77.40
13521;DHT22;6832;51.186;3.236;2022-10-31T14:46:51;20.70;77.70
13521;DHT22;6832;51.186;3.236;2022-10-31T14:49:47;20.70;77.70
13521;DHT22;6832;51.186;3.236;2022-10-31T14:52:41;20.70;77.70
13521;DHT22;6832;51.186;3.236;2022-10-31T14:55:17;20.70;77.70
13521;DHT22;6832;51.186;3.236;2022-10-31T14:58:05;20.70;77.80
13521;DHT22;6832;51.186;3.236;2022-10-31T15:00:43;20.70;77.70
13521;DHT22;6832;51.186;3.236;2022-10-31T15:03:21;20.70;77.70
13521;DHT22;6832;51.186;3.236;2022-10-31T15:06:14;20.70;77.80
13521;DHT22;6832;51.186;3.236;2022-10-31T15:08:45;20.70;77.80
13521;DHT22;6832;51.186;3.236;2022-10-31T15:14:40;20.70;77.80
13521;DHT22;6832;51.186;3.236;2022-10-31T15:17:18;20.60;77.70
13521;DHT22;6832;51.186;3.236;2022-10-31T15:19:51;20.60;78.00
13521;DHT22;6832;51.186;3.236;2022-10-31T15:22:23;20.60;78.10
13521;DHT22;6832;51.186;3.236;2022-10-31T15:24:57;20.60;78.20
13521;DHT22;6832;51.186;3.236;2022-10-31T15:27:26;20.60;78.20
13521;DHT22;6832;51.186;3.236;2022-10-31T15:30:17;20.60;78.30
13521;DHT22;6832;51.186;3.236;2022-10-31T15:32:48;20.60;78.60
13521;DHT22;6832;51.186;3.236;2022-10-31T15:35:24;20.50;78.40
13521;DHT22;6832;51.186;3.236;2022-10-31T15:38:17;20.50;78.50
13521;DHT22;6832;51.186;3.236;2022-10-31T15:40:51;20.50;78.50
13521;DHT22;6832;51.186;3.236;2022-10-31T15:43:21;20.50;78.80
13521;DHT22;6832;51.186;3.236;2022-10-31T15:45:55;20.50;78.40
13521;DHT22;6832;51.186;3.236;2022-10-31T15:48:28;20.50;78.50
13521;DHT22;6832;51.186;3.236;2022-10-31T15:51:07;20.50;78.40
13521;DHT22;6832;51.186;3.236;2022-10-31T15:53:41;20.50;79.20
13521;DHT22;6832;51.186;3.236;2022-10-31T15:56:18;20.40;78.50
13521;DHT22;6832;51.186;3.236;2022-10-31T15:58:48;20.50;78.60
13521;DHT22;6832;51.186;3.236;2022-10-31T16:01:25;20.40;78.50
13521;DHT22;6832;51.186;3.236;2022-10-31T16:04:19;20.40;78.60
13521;DHT22;6832;51.186;3.236;2022-10-31T16:07:00;20.40;79.10
13521;DHT22;6832;51.186;3.236;2022-10-31T16:09:28;20.30;78.60
13521;DHT22;6832;51.186;3.236;2022-10-31T16:12:17;20.30;78.50
13521;DHT22;6832;51.186;3.236;2022-10-31T16:14:54;20.30;78.70
13521;DHT22;6832;51.186;3.236;2022-10-31T16:17:29;20.20;78.50
13521;DHT22;6832;51.186;3.236;2022-10-31T16:19:59;20.20;78.60
13521;DHT22;6832;51.186;3.236;2022-10-31T16:22:30;20.20;78.70
13521;DHT22;6832;51.186;3.236;2022-10-31T16:25:01;20.10;78.50
13521;DHT22;6832;51.186;3.236;2022-10-31T16:27:34;20.10;78.70
13521;DHT22;6832;51.186;3.236;2022-10-31T16:30:30;20.10;78.70
13521;DHT22;6832;51.186;3.236;2022-10-31T16:33:05;20.10;79.00
13521;DHT22;6832;51.186;3.236;2022-10-31T16:35:46;20.10;78.90
13521;DHT22;6832;51.186;3.236;2022-10-31T16:38:23;20.00;78.70
13521;DHT22;6832;51.186;3.236;2022-10-31T16:40:53;20.00;79.10
13521;DHT22;6832;51.186;3.236;2022-10-31T16:43:23;20.00;79.10
13521;DHT22;6832;51.186;3.236;2022-10-31T16:45:51;20.00;78.90
13521;DHT22;6832;51.186;3.236;2022-10-31T16:48:22;19.90;79.20
13521;DHT22;6832;51.186;3.236;2022-10-31T16:50:50;19.90;79.30
13521;DHT22;6832;51.186;3.236;2022-10-31T16:53:26;19.90;79.50
13521;DHT22;6832;51.186;3.236;2022-10-31T16:55:57;19.80;79.50
13521;DHT22;6832;51.186;3.236;2022-10-31T16:58:34;19.80;79.90
13521;DHT22;6832;51.186;3.236;2022-10-31T17:01:06;19.70;79.90
13521;DHT22;6832;51.186;3.236;2022-10-31T17:03:36;19.70;80.10
13521;DHT22;6832;51.186;3.236;2022-10-31T17:06:04;19.70;80.10
13521;DHT22;6832;51.186;3.236;2022-10-31T17:08:34;19.70;81.00
13521;DHT22;6832;51.186;3.236;2022-10-31T17:11:22;19.60;80.10